Rhonestern — CQLF — position and weather

sailwx.info

Track history (hours):
 
Tides and Currents Weather Stations Pressure Air Temp Water Temp Dewpoint Dewpoint Depression Visibility Wind Speed Wind Dir Waves Ship Positions

Rhonestern

Last reported at 2018-May-25 09:33 UTC. Time now 2018-Jun-22 15:24 UTC.
Position N 58°42' E 004°44'.
Warning: this ship's position is 28 days out of date.

Length 162 m; draft 6.8 m.

Type: Tanker. MMSI: 254899958.

Date/timePositionNaut miles runAvg speedWind from/ knotsBaromVisibWave heightAir tempDewpointWater temp
2018-May-25 09:33N 58°42' E 004°44'213.6
2018-May-25 09:23N 58°40' E 004°47'613.6
2018-May-25 08:56N 58°36' E 004°55'713.8
2018-May-25 08:25N 58°31' E 005°04'614.2
2018-May-25 08:00N 58°26' E 005°12'714.4
2018-May-25 07:30N 58°22' E 005°23'713.9
2018-May-25 07:00N 58°17' E 005°32'714.5
2018-May-25 06:29N 58°12' E 005°43'714.5
2018-May-25 06:00N 58°08' E 005°53'714.4
2018-May-25 05:30N 58°03' E 006°04'714.8
2018-May-25 05:00N 57°59' E 006°15'714.6
2018-May-25 04:30N 57°54' E 006°25'815.0
2018-May-25 04:00N 57°49' E 006°36'714.0
2018-May-25 03:30N 57°46' E 006°48'714.6
2018-May-25 03:00N 57°46' E 007°02'815.1
2018-May-25 02:29N 57°46' E 007°17'715.6
2018-May-25 02:00N 57°45' E 007°30'815.0
2018-May-25 01:30N 57°45' E 007°44'714.9
2018-May-25 01:00N 57°45' E 007°58'814.7
2018-May-25 00:26N 57°45' E 008°14'714.7
2018-May-24 23:57N 57°46' E 008°28'714.8
2018-May-24 23:30N 57°47' E 008°40'714.6
2018-May-24 23:00N 57°47' E 008°54'814.0
2018-May-24 22:27N 57°49' E 009°08'1713.6
2018-May-24 21:13N 57°52' E 009°39'311.6
2018-May-24 20:57N 57°53' E 009°44'1 1.7
2018-May-24 20:27N 57°52' E 009°45'1 1.5
2018-May-24 20:00N 57°52' E 009°46'510.0
2018-May-24 19:29N 57°50' E 009°55'613.3
2018-May-24 19:01N 57°48' E 010°06'713.7
2018-May-24 18:31N 57°48' E 010°19'713.6
2018-May-24 18:01N 57°49' E 010°32'713.1
2018-May-24 17:30N 57°48' E 010°44'611.7
2018-May-24 17:00N 57°43' E 010°46'3 5.0
2018-May-24 16:26N 57°40' E 010°44'0 0.1
2018-May-24 15:59N 57°40' E 010°44'0 0.0
2018-May-24 15:29N 57°40' E 010°44'0 0.0
2018-May-24 14:59N 57°40' E 010°44'0 0.0
2018-May-24 14:26N 57°40' E 010°44'0 0.0
2018-May-24 13:58N 57°40' E 010°44'0 0.0
2018-May-24 08:59N 57°40' E 010°44'0 0.0
2018-May-24 08:29N 57°40' E 010°44'0 0.0
2018-May-24 07:59N 57°40' E 010°44'0 0.1
2018-May-24 07:26N 57°40' E 010°44'0 0.0
2018-May-24 06:55N 57°40' E 010°44'0 0.0
2018-May-24 06:28N 57°40' E 010°44'0 0.1
2018-May-24 05:58N 57°40' E 010°44'0 0.0
2018-May-24 05:28N 57°40' E 010°44'0 0.0
2018-May-24 04:51N 57°40' E 010°44'0 0.0
2018-May-24 04:27N 57°40' E 010°44'0 0.0
2018-May-24 03:57N 57°40' E 010°44'0 0.0
2018-May-24 03:30N 57°40' E 010°44'0 0.0
2018-May-24 03:00N 57°40' E 010°44'0 0.0
2018-May-24 02:26N 57°40' E 010°44'0 0.0
2018-May-24 01:56N 57°40' E 010°43'0 0.0
2018-May-24 01:29N 57°40' E 010°44'0 0.0
2018-May-24 00:59N 57°40' E 010°43'0 0.0
2018-May-24 00:29N 57°40' E 010°43'0 0.0
2018-May-23 23:58N 57°40' E 010°43'0 0.0
2018-May-23 23:28N 57°40' E 010°43'0 0.0
2018-May-23 22:58N 57°40' E 010°43'0 0.0
2018-May-23 22:28N 57°40' E 010°44'0 0.1
2018-May-23 21:54N 57°40' E 010°44'0 0.0
2018-May-23 21:18N 57°40' E 010°44'0 0.0
2018-May-23 21:00N 57°40' E 010°44'0 0.0
2018-May-23 20:30N 57°40' E 010°44'0 0.0
2018-May-23 20:00N 57°40' E 010°44'0 0.0
2018-May-23 19:29N 57°40' E 010°44'0 0.0
2018-May-23 18:59N 57°40' E 010°44'0 0.0
2018-May-23 18:29N 57°40' E 010°44'0 0.0
2018-May-23 18:00N 57°40' E 010°44'2 4.7
2018-May-23 17:30N 57°40' E 010°48'612.2
2018-May-23 17:00N 57°39' E 010°59'713.5
2018-May-23 16:31N 57°36' E 011°10'714.4
2018-May-23 16:00N 57°31' E 011°20'713.9
2018-May-23 15:30N 57°25' E 011°27'713.7
2018-May-23 15:00N 57°19' E 011°32'713.1
2018-May-23 14:30N 57°13' E 011°36'713.2
2018-May-23 14:00N 57°06' E 011°40'713.2
2018-May-23 13:30N 57°00' E 011°44'713.1
2018-May-23 13:00N 56°54' E 011°48'813.3
2018-May-23 12:24N 56°46' E 011°53'813.5
2018-May-23 11:49N 56°39' E 011°47'414.0
2018-May-23 11:30N 56°35' E 011°43'814.3
2018-May-23 10:59N 56°29' E 011°36'714.6
2018-May-23 10:30N 56°23' E 011°30'714.4
2018-May-23 10:00N 56°17' E 011°24'713.7
2018-May-23 09:30N 56°11' E 011°17'3514.3
2018-May-23 07:03N 55°41' E 010°42'012.4
2018-May-23 07:00N 55°41' E 010°42'610.0
2018-May-23 06:24N 55°38' E 010°33'4 9.8
2018-May-23 06:00N 55°34' E 010°33'3 6.8
2018-May-23 05:30N 55°30' E 010°33'2 1.3
2018-May-23 03:59N 55°28' E 010°32'0 0.0
2018-May-23 03:23N 55°28' E 010°32'0 0.0
2018-May-23 02:56N 55°28' E 010°32'0 0.0
2018-May-23 02:29N 55°28' E 010°32'0 0.0
2018-May-21 09:25N 55°28' E 010°32'0 0.0
2018-May-21 08:49N 55°28' E 010°32'0 0.0
2018-May-21 08:30N 55°28' E 010°32'0 0.0
2018-May-21 05:56N 55°28' E 010°32'  
2018-May-17 09:32N 55°28' E 010°32'0 0.0
2018-May-17 09:23N 55°28' E 010°32'0 0.0
2018-May-17 02:50N 55°28' E 010°32'0 0.0
2018-May-17 02:29N 55°28' E 010°32'0 0.0
2018-May-16 23:04N 55°28' E 010°32'0 0.0
2018-May-16 22:52N 55°28' E 010°32'0 0.0
2018-May-16 22:30N 55°28' E 010°32'0 0.0
2018-May-16 21:57N 55°28' E 010°32'0 0.0
2018-May-16 20:39N 55°28' E 010°32'0 0.0
2018-May-16 20:27N 55°28' E 010°32'0 0.0
2018-May-16 19:23N 55°28' E 010°32'0 0.0
2018-May-16 08:03N 55°28' E 010°32'0 0.0
2018-May-16 05:53N 55°28' E 010°32'  
Track history (hours):
 
Tides and Currents Weather Stations Pressure Air Temp Water Temp Dewpoint Dewpoint Depression Visibility Wind Speed Wind Dir Waves Ship Positions

Rhonestern

Last reported at 2018-May-25 09:33 UTC. Time now 2018-Jun-22 15:24 UTC.
Position N 58°42' E 004°44'.
Warning: this ship's position is 28 days out of date.

Length 162 m; draft 6.8 m.

Type: Tanker. MMSI: 254899958.

Date/timePositionNaut miles runAvg speedWind from/ knotsBaromVisibWave heightAir tempDewpointWater temp
2018-May-25 09:33N 58°42' E 004°44'213.6
2018-May-25 09:23N 58°40' E 004°47'613.6
2018-May-25 08:56N 58°36' E 004°55'713.8
2018-May-25 08:25N 58°31' E 005°04'614.2
2018-May-25 08:00N 58°26' E 005°12'714.4
2018-May-25 07:30N 58°22' E 005°23'713.9
2018-May-25 07:00N 58°17' E 005°32'714.5
2018-May-25 06:29N 58°12' E 005°43'714.5
2018-May-25 06:00N 58°08' E 005°53'714.4
2018-May-25 05:30N 58°03' E 006°04'714.8
2018-May-25 05:00N 57°59' E 006°15'714.6
2018-May-25 04:30N 57°54' E 006°25'815.0
2018-May-25 04:00N 57°49' E 006°36'714.0
2018-May-25 03:30N 57°46' E 006°48'714.6
2018-May-25 03:00N 57°46' E 007°02'815.1
2018-May-25 02:29N 57°46' E 007°17'715.6
2018-May-25 02:00N 57°45' E 007°30'815.0
2018-May-25 01:30N 57°45' E 007°44'714.9
2018-May-25 01:00N 57°45' E 007°58'814.7
2018-May-25 00:26N 57°45' E 008°14'714.7
2018-May-24 23:57N 57°46' E 008°28'714.8
2018-May-24 23:30N 57°47' E 008°40'714.6
2018-May-24 23:00N 57°47' E 008°54'814.0
2018-May-24 22:27N 57°49' E 009°08'1713.6
2018-May-24 21:13N 57°52' E 009°39'311.6
2018-May-24 20:57N 57°53' E 009°44'1 1.7
2018-May-24 20:27N 57°52' E 009°45'1 1.5
2018-May-24 20:00N 57°52' E 009°46'510.0
2018-May-24 19:29N 57°50' E 009°55'613.3
2018-May-24 19:01N 57°48' E 010°06'713.7
2018-May-24 18:31N 57°48' E 010°19'713.6
2018-May-24 18:01N 57°49' E 010°32'713.1
2018-May-24 17:30N 57°48' E 010°44'611.7
2018-May-24 17:00N 57°43' E 010°46'3 5.0
2018-May-24 16:26N 57°40' E 010°44'0 0.1
2018-May-24 15:59N 57°40' E 010°44'0 0.0
2018-May-24 15:29N 57°40' E 010°44'0 0.0
2018-May-24 14:59N 57°40' E 010°44'0 0.0
2018-May-24 14:26N 57°40' E 010°44'0 0.0
2018-May-24 13:58N 57°40' E 010°44'0 0.0
2018-May-24 08:59N 57°40' E 010°44'0 0.0
2018-May-24 08:29N 57°40' E 010°44'0 0.0
2018-May-24 07:59N 57°40' E 010°44'0 0.1
2018-May-24 07:26N 57°40' E 010°44'0 0.0
2018-May-24 06:55N 57°40' E 010°44'0 0.0
2018-May-24 06:28N 57°40' E 010°44'0 0.1
2018-May-24 05:58N 57°40' E 010°44'0 0.0
2018-May-24 05:28N 57°40' E 010°44'0 0.0
2018-May-24 04:51N 57°40' E 010°44'0 0.0
2018-May-24 04:27N 57°40' E 010°44'0 0.0
2018-May-24 03:57N 57°40' E 010°44'0 0.0
2018-May-24 03:30N 57°40' E 010°44'0 0.0
2018-May-24 03:00N 57°40' E 010°44'0 0.0
2018-May-24 02:26N 57°40' E 010°44'0 0.0
2018-May-24 01:56N 57°40' E 010°43'0 0.0
2018-May-24 01:29N 57°40' E 010°44'0 0.0
2018-May-24 00:59N 57°40' E 010°43'0 0.0
2018-May-24 00:29N 57°40' E 010°43'0 0.0
2018-May-23 23:58N 57°40' E 010°43'0 0.0
2018-May-23 23:28N 57°40' E 010°43'0 0.0
2018-May-23 22:58N 57°40' E 010°43'0 0.0
2018-May-23 22:28N 57°40' E 010°44'0 0.1
2018-May-23 21:54N 57°40' E 010°44'0 0.0
2018-May-23 21:18N 57°40' E 010°44'0 0.0
2018-May-23 21:00N 57°40' E 010°44'0 0.0
2018-May-23 20:30N 57°40' E 010°44'0 0.0
2018-May-23 20:00N 57°40' E 010°44'0 0.0
2018-May-23 19:29N 57°40' E 010°44'0 0.0
2018-May-23 18:59N 57°40' E 010°44'0 0.0
2018-May-23 18:29N 57°40' E 010°44'0 0.0
2018-May-23 18:00N 57°40' E 010°44'2 4.7
2018-May-23 17:30N 57°40' E 010°48'612.2
2018-May-23 17:00N 57°39' E 010°59'713.5
2018-May-23 16:31N 57°36' E 011°10'714.4
2018-May-23 16:00N 57°31' E 011°20'713.9
2018-May-23 15:30N 57°25' E 011°27'713.7
2018-May-23 15:00N 57°19' E 011°32'713.1
2018-May-23 14:30N 57°13' E 011°36'713.2
2018-May-23 14:00N 57°06' E 011°40'713.2
2018-May-23 13:30N 57°00' E 011°44'713.1
2018-May-23 13:00N 56°54' E 011°48'813.3
2018-May-23 12:24N 56°46' E 011°53'813.5
2018-May-23 11:49N 56°39' E 011°47'414.0
2018-May-23 11:30N 56°35' E 011°43'814.3
2018-May-23 10:59N 56°29' E 011°36'714.6
2018-May-23 10:30N 56°23' E 011°30'714.4
2018-May-23 10:00N 56°17' E 011°24'713.7
2018-May-23 09:30N 56°11' E 011°17'3514.3
2018-May-23 07:03N 55°41' E 010°42'012.4
2018-May-23 07:00N 55°41' E 010°42'610.0
2018-May-23 06:24N 55°38' E 010°33'4 9.8
2018-May-23 06:00N 55°34' E 010°33'3 6.8
2018-May-23 05:30N 55°30' E 010°33'2 1.3
2018-May-23 03:59N 55°28' E 010°32'0 0.0
2018-May-23 03:23N 55°28' E 010°32'0 0.0
2018-May-23 02:56N 55°28' E 010°32'0 0.0
2018-May-23 02:29N 55°28' E 010°32'0 0.0
2018-May-21 09:25N 55°28' E 010°32'0 0.0
2018-May-21 08:49N 55°28' E 010°32'0 0.0
2018-May-21 08:30N 55°28' E 010°32'0 0.0
2018-May-21 05:56N 55°28' E 010°32'  
2018-May-17 09:32N 55°28' E 010°32'0 0.0
2018-May-17 09:23N 55°28' E 010°32'0 0.0
2018-May-17 02:50N 55°28' E 010°32'0 0.0
2018-May-17 02:29N 55°28' E 010°32'0 0.0
2018-May-16 23:04N 55°28' E 010°32'0 0.0
2018-May-16 22:52N 55°28' E 010°32'0 0.0
2018-May-16 22:30N 55°28' E 010°32'0 0.0
2018-May-16 21:57N 55°28' E 010°32'0 0.0
2018-May-16 20:39N 55°28' E 010°32'0 0.0
2018-May-16 20:27N 55°28' E 010°32'0 0.0
2018-May-16 19:23N 55°28' E 010°32'0 0.0
2018-May-16 08:03N 55°28' E 010°32'0 0.0
2018-May-16 05:53N 55°28' E 010°32'  

Dump ship's entire track history